In Rescue
 
Open Full Screen Window  High Contrast Mode
Wind Gusting 00 knots
03
August 09, 2020 6:50 PM CDT
Present Weather: Rain
Weather Information
Wind Direction
  280 °
Wind Speed
  03 kt (3 mph)
Wind Gust
  00 kt (0 mph)
Altimeter
29.87 in
Visibility
3 SM
Temperature
17° C
63° F
Dewpoint
15° C
59° F
Humidity
88%
1hr Rain Fall
00.00 in.
24hr Rain Fall
00.00 in.
Sky Condition
Overcast @ 4,200 ft
Broken @ 3,000 ft
Scattered @ 1,200 ft
MVFR

METAR KORB 092350Z AUTO 28003KT 3SM RA SCT012 BKN030 OVC042 17/15 A2987 RMK AO2 LTG DSNT SW THRU N

FAA Disclaimer: The data displayed is for advisory purposes only and is not to be used for flight planning or operations.